• Join FlightAware (Why Join?)
  • Login
  • US Flag 
04:08PM EDT


 

Airport Tracker/Info


-or-


 

Live Flight TrackerFlight Track Log ✈ N1AP ✈ 27-Jun-2013 ✈ KTEB - KLBE

Flight Track Log - Related Links

Times and Time Zones

All times are in EDT time to prevent confusion due to time zone crossing. See the N1AP flight status page for this flight to view local times or setup timezone preferences in your user account.

Time Position Orientation Groundspeed Altitude Reporting Facility
EDT Latitude Longitude Course Direction KTS MPH feet Rate Location/Type
01:23PM 40.8167 -74.1333 270° West 224 258 1,600  Level New York TRACON
01:24PM 40.8167 -74.2333 270° West 274 315 4,600 3,600 Climbing New York TRACON
01:25PM 40.8167 -74.3167 270° West 239 275 8,900 3,600 Climbing New York TRACON
01:26PM 40.8333 -74.4167 282° West 281 323 11,800 2,580 Climbing New York TRACON
01:27PM 40.8500 -74.5167 282° West 297 342 14,100 1,140 Climbing New York TRACON
01:28PM 40.8667 -74.6167 282° West 306 352 14,100 1,080 Level New York TRACON
01:30PM 40.9817 -74.6989 332° Northwest 338 389 16,800 1,440 Climbing New York Center
01:31PM 40.9922 -74.8203 277° West 308 354 17,700 2,040 Climbing New York Center
01:32PM 40.9647 -74.9478 254° West 328 377 20,900 2,400 Climbing New York Center
01:33PM 40.9394 -75.0756 255° West 352 405 22,600 1,740 Climbing New York Center
01:34PM 40.9100 -75.1917 251° West 368 423 24,500 1,860 Climbing New York Center
01:35PM 40.8756 -75.3347 252° West 378 435 26,400 1,500 Climbing New York Center
01:36PM 40.8478 -75.4564 253° West 378 435 27,600 1,260 Climbing New York Center
01:37PM 40.8336 -75.6036 263° West 384 442 28,900 1,140 Climbing New York Center
01:38PM 40.8397 -75.7575 273° West 402 463 30,000 540 Climbing New York Center
01:39PM 40.8472 -75.9228 273° West 434 499 30,000  Level New York Center
01:40PM 40.8564 -76.0936 274° West 462 532 30,000  Level New York Center
01:41PM 40.8625 -76.2753 273° West 484 557 30,000  Level New York Center
01:42PM 40.8689 -76.4514 273° West 489 563 30,000  Level New York Center
01:43PM 40.8725 -76.6300 272° West 489 563 30,000  Level New York Center
01:44PM 40.8803 -76.8119 273° West 494 568 30,000  Level New York Center
01:45PM 40.8878 -76.9856 273° West 494 568 30,000 -420 Level New York Center
01:46PM 40.8928 -77.1672 272° West 494 568 29,200 -1,080 Descending New York Center
01:47PM 40.8986 -77.3656 272° West 499 574 27,900 -3,180 Descending New York Center
01:49PM 40.9089 -77.7203 272° West 475 547 20,000 -1,680 Descending Cleveland Center
01:50PM 40.9111 -77.8906 271° West 480 552 23,100 480 Climbing Cleveland Center
01:51PM 40.8814 -78.0511 256° West 451 519 21,000 -1,560 Descending Cleveland Center
01:52PM 40.8239 -78.1903 241° Southwest 446 513 20,000 -1,140 Descending Cleveland Center
01:53PM 40.7661 -78.3297 241° Southwest 435 501 18,800 -1,500 Descending Cleveland Center
01:54PM 40.7064 -78.4686 240° Southwest 440 506 17,100 -1,680 Descending Cleveland Center
01:55PM 40.6522 -78.5961 241° Southwest 433 498 15,500 -1,620 Descending Cleveland Center
01:55PM 40.6144 -78.6958 244° Southwest 368 423 14,200 -1,680 Descending Cleveland Center